Time;durP1;ratioP1;P1;durP2;ratioP2;P2;SDS_P1;SDS_P2;PMS_P1;PMS_P2;Temp;Humidity;BMP_temperature;BMP_pressure;BME280_temperature;BME280_humidity;BME280_pressure;Samples;Min_cycle;Max_cycle;Signal;HPM_P1;HPM_P2
2021/06/22 00:01:50;;;;;;;6.50;6.10;;;15.90;99.90;;;;;;5046312;28;20179;-67
2021/06/22 00:04:16;;;;;;;6.00;5.70;;;15.80;99.90;;;;;;5034896;28;20249;-65
2021/06/22 00:06:42;;;;;;;6.53;6.13;;;15.70;99.90;;;;;;5041339;28;20174;-66
2021/06/22 00:09:08;;;;;;;6.53;6.13;;;15.70;99.90;;;;;;5054803;28;20233;-66
2021/06/22 00:11:33;;;;;;;6.63;6.23;;;15.70;99.90;;;;;;5039840;28;20214;-66
2021/06/22 00:13:59;;;;;;;6.57;6.17;;;15.70;99.90;;;;;;5034718;28;20191;-66
2021/06/22 00:16:25;;;;;;;6.67;6.10;;;15.70;99.90;;;;;;5044869;28;20543;-65
2021/06/22 00:18:50;;;;;;;7.03;6.63;;;15.70;99.90;;;;;;5034706;28;20172;-65
2021/06/22 00:21:16;;;;;;;6.97;6.57;;;15.70;99.90;;;;;;5035574;28;20664;-66
2021/06/22 00:23:42;;;;;;;7.10;6.60;;;15.70;99.90;;;;;;5034384;28;20201;-66
2021/06/22 00:26:07;;;;;;;7.33;6.93;;;15.70;99.90;;;;;;5043503;28;20185;-66
2021/06/22 00:28:33;;;;;;;7.17;6.57;;;15.60;99.90;;;;;;5054441;28;20267;-65
2021/06/22 00:30:58;;;;;;;7.47;6.87;;;15.60;99.90;;;;;;5046454;28;20203;-65
2021/06/22 00:33:24;;;;;;;7.53;7.03;;;15.60;99.90;;;;;;5034356;28;20230;-66
2021/06/22 00:35:50;;;;;;;6.67;6.27;;;15.60;99.90;;;;;;5039915;28;20249;-67
2021/06/22 00:38:15;;;;;;;6.60;6.20;;;15.60;99.90;;;;;;5054506;28;20167;-66
2021/06/22 00:40:41;;;;;;;7.33;6.83;;;15.60;99.90;;;;;;5050367;28;20656;-66
2021/06/22 00:43:06;;;;;;;7.40;6.90;;;15.50;99.90;;;;;;5034446;28;20184;-64
2021/06/22 00:45:34;;;;;;;6.77;6.27;;;15.50;99.90;;;;;;5036107;28;20754;-65
2021/06/22 00:48:00;;;;;;;7.37;6.67;;;15.50;99.90;;;;;;5054152;28;20206;-66
2021/06/22 00:50:26;;;;;;;6.90;6.30;;;15.50;99.90;;;;;;5052567;28;20286;-65
2021/06/22 00:52:53;;;;;;;7.80;7.20;;;15.40;99.90;;;;;;5033895;28;20697;-64
2021/06/22 00:55:34;;;;;;;7.50;6.93;;;15.40;99.90;;;;;;5034247;28;20176;-64
2021/06/22 00:58:03;;;;;;;7.07;6.50;;;15.40;99.90;;;;;;5013735;28;20580;-65
2021/06/22 01:00:29;;;;;;;7.43;6.93;;;15.40;99.90;;;;;;5014528;28;20641;-66
2021/06/22 01:02:56;;;;;;;7.83;7.27;;;15.40;99.90;;;;;;5054242;28;20548;-64
2021/06/22 01:05:23;;;;;;;6.60;6.20;;;15.50;99.90;;;;;;5052895;28;20702;-65
2021/06/22 01:07:51;;;;;;;6.83;6.43;;;15.50;99.90;;;;;;5034877;28;20218;-65
2021/06/22 01:10:17;;;;;;;7.57;7.07;;;15.40;99.90;;;;;;5033343;28;20290;-65
2021/06/22 01:12:42;;;;;;;8.20;7.60;;;15.40;99.90;;;;;;5049875;28;20227;-65
2021/06/22 01:15:15;;;;;;;8.73;8.03;;;15.40;99.90;;;;;;5053650;28;20171;-65
2021/06/22 01:17:41;;;;;;;8.27;7.63;;;15.40;99.90;;;;;;5048509;28;20174;-64
2021/06/22 01:20:09;;;;;;;8.80;8.00;;;15.30;99.90;;;;;;5053231;28;20175;-65
2021/06/22 01:22:34;;;;;;;10.07;9.07;;;15.30;99.90;;;;;;5050563;28;20546;-64
2021/06/22 01:25:01;;;;;;;9.77;8.97;;;15.30;99.90;;;;;;5053394;28;20171;-65
2021/06/22 01:27:27;;;;;;;9.10;8.30;;;15.30;99.90;;;;;;5039645;28;20171;-65
2021/06/22 01:29:53;;;;;;;9.27;8.33;;;15.20;99.90;;;;;;5033185;28;20608;-64
2021/06/22 01:32:19;;;;;;;8.30;7.70;;;15.20;99.90;;;;;;5044674;28;20194;-64
2021/06/22 01:34:45;;;;;;;8.93;8.23;;;15.20;99.90;;;;;;5053127;28;20214;-65
2021/06/22 01:37:11;;;;;;;7.80;7.23;;;15.20;99.90;;;;;;5042761;28;20541;-66
2021/06/22 01:39:37;;;;;;;7.40;6.80;;;15.20;99.90;;;;;;5033514;28;20172;-66
2021/06/22 01:42:03;;;;;;;7.97;7.27;;;15.20;99.90;;;;;;5041284;28;20189;-66
2021/06/22 01:44:32;;;;;;;7.63;7.10;;;15.30;99.90;;;;;;5051070;28;20637;-66
2021/06/22 01:46:58;;;;;;;8.83;8.03;;;15.30;99.90;;;;;;5053063;28;20170;-67
2021/06/22 01:49:25;;;;;;;9.83;7.40;;;15.40;99.90;;;;;;5046813;28;20179;-67
2021/06/22 01:51:50;;;;;;;8.40;7.70;;;15.40;99.90;;;;;;5031882;28;20225;-67
2021/06/22 01:54:16;;;;;;;7.87;7.27;;;15.40;99.90;;;;;;5037121;28;20585;-67
2021/06/22 01:56:49;;;;;;;7.63;7.13;;;15.50;99.90;;;;;;5052805;28;20182;-68
2021/06/22 01:59:15;;;;;;;7.70;7.10;;;15.50;99.90;;;;;;5048927;28;20179;-67
2021/06/22 02:01:42;;;;;;;9.00;8.17;;;15.40;99.90;;;;;;5044531;28;20632;-67
2021/06/22 02:04:08;;;;;;;9.13;8.37;;;15.50;99.90;;;;;;5032646;28;20285;-66
2021/06/22 02:06:34;;;;;;;8.43;7.73;;;15.40;99.90;;;;;;5035219;28;20695;-65
2021/06/22 02:08:59;;;;;;;9.33;8.43;;;15.30;99.90;;;;;;5051991;28;20609;-66
2021/06/22 02:11:25;;;;;;;11.37;8.20;;;15.30;99.90;;;;;;5037024;28;20289;-65
2021/06/22 02:13:51;;;;;;;9.93;9.13;;;15.20;99.90;;;;;;5052769;28;20554;-67
2021/06/22 02:16:18;;;;;;;10.10;7.83;;;15.20;99.90;;;;;;5033811;28;20263;-66
2021/06/22 02:18:44;;;;;;;8.60;7.90;;;15.20;99.90;;;;;;5032548;28;20180;-65
2021/06/22 02:21:11;;;;;;;9.27;8.47;;;15.20;99.90;;;;;;5048020;28;20182;-66
2021/06/22 02:23:36;;;;;;;9.23;8.27;;;15.30;99.90;;;;;;5052355;28;20194;-66
2021/06/22 02:26:03;;;;;;;9.07;8.27;;;15.30;99.90;;;;;;5037237;28;20186;-67
2021/06/22 02:28:29;;;;;;;8.07;7.47;;;15.20;99.90;;;;;;5032205;28;20172;-66
2021/06/22 02:30:55;;;;;;;9.13;8.23;;;15.20;99.90;;;;;;5045168;28;20572;-67
2021/06/22 02:33:21;;;;;;;8.50;7.80;;;15.30;99.90;;;;;;5052249;28;20669;-66
2021/06/22 02:35:48;;;;;;;8.70;8.00;;;15.30;99.90;;;;;;5040254;28;20201;-64
2021/06/22 02:38:14;;;;;;;8.37;7.77;;;15.30;99.90;;;;;;5032170;28;20180;-64
2021/06/22 02:40:41;;;;;;;8.20;7.50;;;15.30;99.90;;;;;;5041562;28;20191;-66
2021/06/22 02:43:07;;;;;;;7.90;7.30;;;15.30;99.90;;;;;;5051972;28;20569;-66
2021/06/22 02:45:34;;;;;;;8.70;7.90;;;15.30;99.90;;;;;;5043440;28;20180;-65
2021/06/22 02:48:00;;;;;;;8.40;7.80;;;15.40;99.90;;;;;;5032269;28;20179;-67
2021/06/22 02:50:26;;;;;;;8.83;8.10;;;15.30;99.90;;;;;;5038180;28;20211;-66
2021/06/22 02:52:52;;;;;;;8.80;8.00;;;15.20;99.90;;;;;;5051713;28;20292;-67
2021/06/22 02:55:18;;;;;;;8.60;7.87;;;15.10;99.90;;;;;;5028975;28;20222;-66
2021/06/22 02:57:49;;;;;;;8.43;7.83;;;15.00;99.90;;;;;;5032040;28;20612;-67
2021/06/22 03:00:17;;;;;;;8.70;7.70;;;14.90;99.90;;;;;;5032861;28;20577;-66
2021/06/22 03:02:43;;;;;;;8.17;7.53;;;14.90;99.90;;;;;;5031510;28;20610;-65
2021/06/22 03:05:10;;;;;;;8.33;7.73;;;14.90;99.90;;;;;;5033811;28;20203;-67
2021/06/22 03:07:36;;;;;;;7.80;7.10;;;14.90;99.90;;;;;;5051574;28;20236;-66
2021/06/22 03:10:06;;;;;;;7.67;7.10;;;14.80;99.90;;;;;;5050378;28;20667;-66
2021/06/22 03:12:31;;;;;;;8.33;7.63;;;14.70;99.90;;;;;;5031354;28;20536;-66
2021/06/22 03:14:57;;;;;;;8.37;7.60;;;14.70;99.90;;;;;;5031702;28;20170;-66
2021/06/22 03:17:22;;;;;;;7.10;6.50;;;14.70;99.90;;;;;;5050754;28;20189;-66
2021/06/22 03:19:48;;;;;;;7.40;6.90;;;14.60;99.90;;;;;;5051260;28;20535;-66
2021/06/22 03:22:13;;;;;;;7.00;6.50;;;14.60;99.90;;;;;;5034204;28;20232;-67
2021/06/22 03:24:39;;;;;;;7.20;6.70;;;14.60;99.90;;;;;;5031654;28;20558;-66
2021/06/22 03:27:05;;;;;;;7.07;6.57;;;14.50;99.90;;;;;;5047204;28;20707;-67
2021/06/22 03:29:31;;;;;;;7.73;7.13;;;14.60;99.90;;;;;;5051697;28;20542;-67
2021/06/22 03:31:56;;;;;;;7.73;7.03;;;14.50;99.90;;;;;;5037345;28;20226;-67
2021/06/22 03:34:22;;;;;;;8.00;7.30;;;14.60;99.90;;;;;;5031395;28;20198;-64
2021/06/22 03:36:47;;;;;;;8.33;7.57;;;14.60;99.90;;;;;;5043262;28;20587;-65
2021/06/22 03:39:13;;;;;;;8.10;7.50;;;14.50;99.90;;;;;;5051530;28;20301;-64
2021/06/22 03:41:39;;;;;;;7.77;7.17;;;14.50;99.90;;;;;;5040852;28;20273;-65
2021/06/22 03:44:05;;;;;;;7.80;7.30;;;14.50;99.90;;;;;;5032196;28;20195;-66
2021/06/22 03:46:31;;;;;;;8.13;7.63;;;14.60;99.90;;;;;;5051635;28;20228;-66
2021/06/22 03:48:57;;;;;;;10.63;7.47;;;14.50;99.90;;;;;;5051541;28;20182;-67
2021/06/22 03:51:23;;;;;;;8.40;7.80;;;14.50;99.90;;;;;;5049305;28;20309;-66
2021/06/22 03:53:48;;;;;;;8.87;8.07;;;14.50;99.90;;;;;;5051385;28;20211;-67
2021/06/22 03:56:15;;;;;;;9.07;8.17;;;14.50;99.90;;;;;;5033776;28;20242;-65
2021/06/22 03:58:42;;;;;;;8.40;7.70;;;14.40;99.90;;;;;;5031505;28;20258;-66
2021/06/22 04:01:08;;;;;;;9.07;8.27;;;14.40;99.90;;;;;;5046647;28;20698;-67
2021/06/22 04:03:33;;;;;;;8.40;7.80;;;14.40;99.90;;;;;;5051145;28;20194;-66
2021/06/22 04:05:59;;;;;;;8.53;7.70;;;14.50;99.90;;;;;;5037035;28;20182;-67
2021/06/22 04:08:25;;;;;;;8.97;8.27;;;14.50;99.90;;;;;;5031040;28;20183;-66
2021/06/22 04:10:51;;;;;;;8.50;7.80;;;14.50;99.90;;;;;;5031832;28;20273;-66
2021/06/22 04:13:16;;;;;;;8.80;7.90;;;14.50;99.90;;;;;;5031387;28;20652;-65
2021/06/22 04:15:42;;;;;;;9.40;8.43;;;14.50;99.90;;;;;;5047470;28;20175;-66
2021/06/22 04:18:09;;;;;;;10.03;8.87;;;14.50;99.90;;;;;;5054672;28;20254;-66
2021/06/22 04:20:37;;;;;;;9.50;8.63;;;14.50;99.90;;;;;;5052422;28;20672;-66
2021/06/22 04:23:04;;;;;;;10.30;9.23;;;14.40;99.90;;;;;;5054522;28;20194;-64
2021/06/22 04:25:30;;;;;;;12.80;10.63;;;14.40;99.90;;;;;;5044224;28;20551;-65
2021/06/22 04:27:56;;;;;;;12.83;11.20;;;14.40;99.90;;;;;;5034821;28;20179;-66
2021/06/22 04:30:22;;;;;;;18.10;13.47;;;14.30;99.90;;;;;;5042484;28;20689;-66
2021/06/22 04:32:48;;;;;;;19.53;12.67;;;14.20;99.90;;;;;;5054474;28;20604;-66
2021/06/22 04:35:14;;;;;;;16.27;12.00;;;14.20;99.90;;;;;;5047767;28;20237;-66
2021/06/22 04:37:41;;;;;;;14.07;11.43;;;14.20;99.90;;;;;;5034753;28;20172;-67
2021/06/22 04:40:08;;;;;;;12.10;10.83;;;14.10;99.90;;;;;;5038897;28;20178;-63
2021/06/22 04:42:34;;;;;;;12.43;11.23;;;14.20;99.90;;;;;;5053895;28;20187;-64
2021/06/22 04:45:00;;;;;;;14.80;11.37;;;14.20;99.90;;;;;;5050751;28;20186;-65
2021/06/22 04:47:25;;;;;;;15.03;12.67;;;14.20;99.90;;;;;;5034086;28;20174;-64
2021/06/22 04:49:51;;;;;;;16.73;12.27;;;14.30;99.90;;;;;;5035076;28;20187;-63
2021/06/22 04:52:17;;;;;;;15.43;13.70;;;14.30;99.90;;;;;;5053906;28;20182;-65
2021/06/22 04:54:42;;;;;;;12.37;11.00;;;14.30;99.90;;;;;;5052667;22;20718;-67
2021/06/22 04:57:11;;;;;;;13.17;11.00;;;14.30;99.90;;;;;;5053457;28;20178;-67
2021/06/22 04:59:37;;;;;;;11.53;10.33;;;14.40;99.90;;;;;;5053670;28;20167;-66
2021/06/22 05:02:03;;;;;;;11.50;10.40;;;14.40;99.90;;;;;;5035214;28;20695;-66
2021/06/22 05:04:29;;;;;;;11.33;10.30;;;14.50;99.90;;;;;;5033642;28;20675;-66
2021/06/22 05:06:55;;;;;;;11.23;10.13;;;14.50;99.90;;;;;;5050122;28;20518;-66
2021/06/22 05:09:21;;;;;;;12.33;11.03;;;14.60;99.90;;;;;;5053750;28;20185;-66
2021/06/22 05:11:46;;;;;;;11.80;10.70;;;14.60;99.90;;;;;;5038498;28;20551;-66
2021/06/22 05:14:12;;;;;;;11.73;10.60;;;14.70;99.90;;;;;;5033658;28;20196;-66
2021/06/22 05:16:37;;;;;;;13.37;12.27;;;14.70;99.90;;;;;;5045833;28;20185;-66
2021/06/22 05:19:03;;;;;;;11.37;10.27;;;14.80;99.90;;;;;;5053802;28;20167;-66
2021/06/22 05:21:29;;;;;;;10.53;9.50;;;14.90;99.90;;;;;;5042149;28;20176;-67
2021/06/22 05:23:55;;;;;;;11.20;10.20;;;14.90;99.90;;;;;;5042016;28;20229;-66
2021/06/22 05:26:20;;;;;;;11.07;10.07;;;15.00;99.90;;;;;;5052336;28;20270;-66
2021/06/22 05:28:46;;;;;;;10.77;9.77;;;15.10;99.90;;;;;;5046241;28;20180;-66
2021/06/22 05:31:11;;;;;;;10.90;9.90;;;15.00;99.90;;;;;;5033021;28;20294;-67
2021/06/22 05:33:37;;;;;;;10.67;9.67;;;15.10;99.90;;;;;;5037995;28;20278;-66
2021/06/22 05:36:03;;;;;;;9.70;8.90;;;15.10;99.90;;;;;;5053262;28;20207;-67
2021/06/22 05:38:29;;;;;;;9.70;8.80;;;15.00;99.90;;;;;;5049708;28;20175;-66
2021/06/22 05:40:54;;;;;;;10.47;9.53;;;15.00;99.90;;;;;;5032884;28;20241;-66
2021/06/22 05:43:20;;;;;;;9.50;8.70;;;15.00;99.90;;;;;;5034139;28;20192;-66
2021/06/22 05:45:46;;;;;;;8.97;8.13;;;15.10;99.90;;;;;;5053116;28;20178;-66
2021/06/22 05:48:11;;;;;;;8.90;8.30;;;15.20;99.90;;;;;;5052990;28;20186;-67
2021/06/22 05:50:37;;;;;;;8.40;7.67;;;15.20;99.90;;;;;;5032787;28;20205;-66
2021/06/22 05:53:03;;;;;;;8.07;7.40;;;15.20;99.90;;;;;;5032863;28;20553;-66
2021/06/22 05:55:29;;;;;;;8.10;7.47;;;15.20;99.90;;;;;;5050291;28;20194;-67
2021/06/22 05:57:56;;;;;;;8.80;7.90;;;15.20;99.90;;;;;;5052840;28;20163;-66
2021/06/22 06:00:24;;;;;;;8.17;7.67;;;15.30;99.90;;;;;;5036452;28;20188;-67
2021/06/22 06:02:50;;;;;;;8.00;7.30;;;15.30;99.90;;;;;;5032562;28;20171;-67
2021/06/22 06:05:17;;;;;;;8.40;7.67;;;15.20;99.90;;;;;;5046988;28;20274;-66
2021/06/22 06:07:43;;;;;;;7.93;7.23;;;15.20;99.90;;;;;;5052247;28;20226;-66
2021/06/22 06:10:11;;;;;;;7.63;7.00;;;15.20;99.90;;;;;;5032298;28;20207;-67
2021/06/22 06:12:36;;;;;;;7.60;6.90;;;15.20;99.90;;;;;;5014643;28;20192;-66
2021/06/22 06:15:03;;;;;;;9.37;7.83;;;15.10;99.90;;;;;;5050792;28;20171;-67
2021/06/22 06:17:28;;;;;;;9.00;8.33;;;15.10;99.90;;;;;;5052225;28;20572;-67
2021/06/22 06:19:54;;;;;;;10.13;9.03;;;15.20;99.90;;;;;;5035418;28;20237;-66
2021/06/22 06:22:20;;;;;;;8.23;7.63;;;15.20;99.90;;;;;;5032025;28;20174;-67
2021/06/22 06:24:46;;;;;;;8.27;7.47;;;15.20;99.90;;;;;;5031500;28;20562;-67
2021/06/22 06:27:17;;;;;;;10.00;8.57;;;15.00;99.90;;;;;;5032466;28;20164;-67
2021/06/22 06:29:57;;;;;;;10.07;9.00;;;15.00;99.90;;;;;;5045666;28;20193;-67
2021/06/22 06:32:23;;;;;;;9.57;8.67;;;15.10;99.90;;;;;;5052146;28;20166;-67
2021/06/22 06:34:48;;;;;;;11.03;9.77;;;15.20;99.90;;;;;;5051391;28;20619;-67
2021/06/22 06:37:14;;;;;;;10.27;9.47;;;15.20;99.90;;;;;;5051807;28;20545;-67
2021/06/22 06:39:40;;;;;;;11.40;9.93;;;15.30;99.90;;;;;;5050578;28;20179;-67
2021/06/22 06:42:07;;;;;;;9.47;8.67;;;15.30;99.90;;;;;;5051822;28;20262;-65
2021/06/22 06:44:32;;;;;;;13.03;11.73;;;15.30;99.90;;;;;;5041305;28;20245;-66
2021/06/22 06:46:58;;;;;;;10.90;9.77;;;15.30;99.90;;;;;;5032006;28;20171;-66
2021/06/22 06:49:24;;;;;;;10.67;9.77;;;15.30;99.90;;;;;;5039970;28;20548;-66
2021/06/22 06:51:49;;;;;;;10.40;9.50;;;15.30;99.90;;;;;;5051427;28;20202;-66
2021/06/22 06:54:15;;;;;;;10.53;9.53;;;15.20;99.90;;;;;;5045070;28;20222;-65
2021/06/22 06:56:41;;;;;;;11.43;10.27;;;15.00;99.90;;;;;;5031591;28;20274;-66
2021/06/22 06:59:06;;;;;;;10.67;9.57;;;14.90;99.90;;;;;;5032970;28;20190;-65
2021/06/22 07:01:32;;;;;;;12.03;10.80;;;14.70;99.90;;;;;;5031423;28;20621;-65
2021/06/22 07:03:59;;;;;;;11.67;10.60;;;14.60;99.90;;;;;;5032065;28;20201;-66
2021/06/22 07:06:25;;;;;;;12.50;11.50;;;14.70;99.90;;;;;;5031727;28;20164;-66
2021/06/22 07:08:51;;;;;;;12.30;11.30;;;14.70;99.90;;;;;;5032996;28;20229;-65
2021/06/22 07:11:21;;;;;;;12.90;11.70;;;14.60;99.90;;;;;;5038852;28;20206;-65
2021/06/22 07:13:50;;;;;;;12.00;11.00;;;14.50;99.90;;;;;;5035380;28;20879;-65
2021/06/22 07:16:16;;;;;;;12.47;11.27;;;14.40;99.90;;;;;;5011913;28;20187;-65
2021/06/22 07:18:42;;;;;;;12.10;10.90;;;14.40;99.90;;;;;;5011563;28;20262;-65
2021/06/22 07:21:08;;;;;;;12.70;11.40;;;14.40;99.90;;;;;;5047747;28;20651;-65
2021/06/22 07:23:34;;;;;;;14.03;12.30;;;14.50;99.90;;;;;;5033313;28;20203;-65
2021/06/22 07:26:00;;;;;;;12.53;11.30;;;14.50;99.90;;;;;;5034341;28;20179;-65
2021/06/22 07:28:26;;;;;;;13.13;11.90;;;14.50;99.90;;;;;;5031436;28;20216;-65
2021/06/22 07:30:52;;;;;;;12.07;10.87;;;14.50;99.90;;;;;;5045894;28;20766;-65
2021/06/22 07:33:17;;;;;;;12.77;11.50;;;14.60;99.90;;;;;;5050671;28;20191;-65
2021/06/22 07:35:44;;;;;;;12.80;11.63;;;14.50;99.90;;;;;;5037400;28;20188;-65
2021/06/22 07:38:10;;;;;;;14.20;12.20;;;14.70;99.90;;;;;;5031453;28;20167;-65
2021/06/22 07:40:36;;;;;;;13.67;11.93;;;14.80;99.90;;;;;;5032699;28;20273;-65
2021/06/22 07:43:01;;;;;;;14.60;12.67;;;15.00;99.90;;;;;;5031367;28;20230;-65
2021/06/22 07:45:27;;;;;;;13.77;12.10;;;15.20;99.90;;;;;;5041270;28;20179;-65
2021/06/22 07:47:55;;;;;;;13.40;12.00;;;15.30;99.90;;;;;;5051210;28;20273;-65
2021/06/22 07:50:21;;;;;;;12.40;11.27;;;15.40;99.90;;;;;;5044763;28;20253;-65
2021/06/22 07:52:47;;;;;;;14.63;11.60;;;15.50;99.90;;;;;;5034254;28;20250;-65
2021/06/22 07:55:15;;;;;;;12.00;10.97;;;15.50;99.90;;;;;;5035356;28;20263;-65
2021/06/22 07:57:46;;;;;;;13.10;11.07;;;15.50;99.90;;;;;;5034920;28;20168;-65
2021/06/22 08:03:02;;;;;;;13.17;11.60;;;15.70;99.90;;;;;;5055159;28;20198;-65
2021/06/22 08:05:28;;;;;;;13.00;11.77;;;15.70;99.90;;;;;;5046406;28;20229;-65
2021/06/22 08:07:53;;;;;;;12.93;11.63;;;15.80;99.90;;;;;;5037372;28;20183;-65
2021/06/22 08:10:19;;;;;;;13.47;12.20;;;15.80;99.90;;;;;;5054415;28;20598;-65
2021/06/22 08:12:44;;;;;;;12.27;11.13;;;16.00;99.90;;;;;;5035517;28;20181;-65
2021/06/22 08:15:10;;;;;;;13.27;12.00;;;16.20;99.90;;;;;;5034826;28;20167;-65
2021/06/22 08:17:36;;;;;;;11.23;10.20;;;16.20;99.90;;;;;;5034651;28;20178;-65
2021/06/22 08:20:05;;;;;;;11.80;10.80;;;16.20;99.90;;;;;;5035037;28;20179;-65
2021/06/22 08:22:31;;;;;;;12.10;10.90;;;16.20;99.90;;;;;;5031074;28;20188;-65
2021/06/22 08:24:57;;;;;;;13.00;11.80;;;16.30;99.90;;;;;;5034559;28;20229;-65
2021/06/22 08:27:23;;;;;;;11.90;10.70;;;16.30;99.90;;;;;;5034103;28;20271;-65
2021/06/22 08:29:48;;;;;;;13.37;12.13;;;16.40;99.90;;;;;;5033092;28;20184;-65
2021/06/22 08:32:14;;;;;;;11.70;10.57;;;16.40;99.90;;;;;;5034347;28;20245;-65
2021/06/22 08:34:40;;;;;;;13.53;11.53;;;16.50;99.90;;;;;;5047483;28;20278;-64
2021/06/22 08:37:05;;;;;;;11.27;10.30;;;16.60;99.90;;;;;;5054391;28;20171;-65
2021/06/22 08:39:32;;;;;;;11.40;10.30;;;16.60;99.90;;;;;;5041072;28;20241;-65
2021/06/22 08:42:00;;;;;;;10.67;9.73;;;16.70;99.90;;;;;;5033973;28;20176;-67
2021/06/22 08:44:29;;;;;;;10.33;9.60;;;16.90;99.90;;;;;;5045516;28;20234;-65
2021/06/22 08:46:56;;;;;;;10.87;9.97;;;17.00;99.90;;;;;;5043373;28;20184;-66
2021/06/22 08:49:22;;;;;;;9.93;9.10;;;17.00;99.90;;;;;;5034085;28;20180;-65
2021/06/22 08:51:48;;;;;;;9.00;8.20;;;17.10;99.90;;;;;;5042386;28;20206;-65
2021/06/22 08:54:13;;;;;;;7.97;7.27;;;17.40;99.90;;;;;;5053819;28;20198;-66
2021/06/22 08:56:39;;;;;;;8.50;7.67;;;18.10;99.90;;;;;;5046550;28;20589;-66
2021/06/22 08:59:05;;;;;;;8.43;7.83;;;19.20;99.90;;;;;;5033941;28;20183;-66
2021/06/22 09:01:30;;;;;;;8.70;7.90;;;19.80;99.90;;;;;;5038458;28;20553;-65
2021/06/22 09:03:56;;;;;;;9.13;8.43;;;19.50;99.90;;;;;;5053759;28;20190;-65
2021/06/22 09:06:26;;;;;;;8.97;8.17;;;19.30;99.90;;;;;;5048694;28;20171;-66
2021/06/22 09:08:53;;;;;;;8.93;8.13;;;18.90;99.90;;;;;;5040770;28;20179;-65
2021/06/22 09:11:19;;;;;;;8.13;7.53;;;18.50;99.90;;;;;;5033426;28;20203;-66
2021/06/22 09:14:02;;;;;;;8.20;7.50;;;18.10;99.90;;;;;;5039405;28;20242;-65
2021/06/22 09:16:29;;;;;;;8.23;7.60;;;18.00;99.90;;;;;;5053554;28;20655;-65
2021/06/22 09:19:09;;;;;;;8.40;7.60;;;18.00;99.90;;;;;;5051870;28;20206;-65
2021/06/22 09:21:43;;;;;;;8.03;7.33;;;18.20;99.90;;;;;;5052383;28;20680;-65
2021/06/22 09:24:18;;;;;;;8.80;7.87;;;18.50;99.90;;;;;;5044707;28;20200;-65
2021/06/22 09:26:45;;;;;;;8.47;7.87;;;18.40;99.90;;;;;;5033155;28;20179;-65
2021/06/22 09:29:13;;;;;;;8.77;7.87;;;18.40;99.90;;;;;;5038771;28;20189;-65
2021/06/22 09:31:59;;;;;;;8.53;7.73;;;18.40;99.90;;;;;;5032281;28;20203;-65
2021/06/22 09:34:26;;;;;;;9.00;8.20;;;18.40;99.90;;;;;;5038591;28;20226;-65
2021/06/22 09:36:58;;;;;;;8.13;7.57;;;18.20;99.90;;;;;;5042106;28;20662;-65
2021/06/22 09:39:26;;;;;;;9.23;8.27;;;18.20;99.90;;;;;;5051646;28;20198;-65
2021/06/22 09:41:53;;;;;;;8.13;7.53;;;18.30;99.90;;;;;;5052821;28;20178;-66
2021/06/22 09:44:24;;;;;;;9.23;8.63;;;18.90;99.90;;;;;;5048644;28;20210;-65
2021/06/22 09:46:54;;;;;;;9.13;8.33;;;19.50;99.90;;;;;;5052798;28;20179;-65
2021/06/22 09:49:23;;;;;;;8.33;7.60;;;20.00;99.90;;;;;;5051314;28;20261;-65
2021/06/22 09:51:55;;;;;;;8.70;8.00;;;20.20;99.90;;;;;;5052383;28;20206;-65
2021/06/22 09:54:25;;;;;;;9.00;8.20;;;20.10;99.90;;;;;;5045647;28;20195;-65
2021/06/22 09:56:52;;;;;;;9.70;8.90;;;19.70;99.90;;;;;;5032610;28;20187;-65
2021/06/22 09:59:18;;;;;;;8.90;8.10;;;19.30;99.90;;;;;;5038490;28;20175;-65
2021/06/22 10:01:43;;;;;;;10.70;8.57;;;19.10;99.90;;;;;;5052468;28;20237;-65
2021/06/22 10:04:17;;;;;;;10.97;8.77;;;18.90;99.90;;;;;;5048242;28;20669;-65
2021/06/22 10:06:52;;;;;;;9.83;8.30;;;18.80;99.90;;;;;;5032676;28;20254;-66
2021/06/22 10:09:33;;;;;;;8.83;8.17;;;18.80;99.90;;;;;;5051017;28;20559;-66
2021/06/22 10:12:13;;;;;;;9.50;8.53;;;18.90;99.90;;;;;;5051438;28;20289;-65
2021/06/22 10:14:43;;;;;;;8.43;7.83;;;18.90;99.90;;;;;;5012662;28;20199;-65
2021/06/22 10:17:13;;;;;;;8.37;7.77;;;18.90;99.90;;;;;;5012488;28;20182;-65
2021/06/22 10:19:40;;;;;;;8.67;7.87;;;18.90;99.90;;;;;;5052451;28;20177;-65
2021/06/22 10:22:06;;;;;;;9.03;8.23;;;19.00;99.90;;;;;;5052146;28;20189;-65
2021/06/22 10:24:40;;;;;;;8.33;7.60;;;19.00;99.90;;;;;;5033224;28;20622;-65
2021/06/22 10:27:06;;;;;;;8.10;7.40;;;18.90;99.90;;;;;;5032253;28;20175;-65
2021/06/22 10:29:32;;;;;;;7.87;7.27;;;18.90;99.90;;;;;;5050031;28;20551;-65
2021/06/22 10:31:59;;;;;;;9.03;8.13;;;18.70;99.90;;;;;;5051584;28;20202;-65
2021/06/22 10:34:24;;;;;;;8.90;8.20;;;18.80;99.90;;;;;;5035119;28;20192;-65
2021/06/22 10:37:14;;;;;;;7.57;7.07;;;18.90;99.90;;;;;;5031867;28;20229;-65
2021/06/22 10:39:57;;;;;;;8.60;7.90;;;19.00;99.90;;;;;;5050196;28;20549;-65
2021/06/22 10:42:23;;;;;;;8.03;7.43;;;19.20;99.90;;;;;;5052019;28;20177;-65
2021/06/22 10:44:59;;;;;;;8.27;7.47;;;19.50;99.90;;;;;;5032509;28;20207;-65
2021/06/22 10:47:28;;;;;;;8.20;7.60;;;19.90;99.90;;;;;;5032023;28;20532;-66
2021/06/22 10:49:57;;;;;;;7.83;7.17;;;20.20;99.90;;;;;;5050539;28;20257;-65
2021/06/22 10:52:41;;;;;;;7.40;6.87;;;20.50;99.90;;;;;;5051716;28;20236;-65
2021/06/22 10:55:21;;;;;;;8.63;6.93;;;20.70;99.90;;;;;;5052944;22;20715;-64
2021/06/22 11:00:50;;;;;;;7.70;7.10;;;20.40;99.90;;;;;;5031226;28;20179;-65
2021/06/22 11:03:23;;;;;;;9.20;8.60;;;20.20;99.90;;;;;;5027154;28;20172;-65
2021/06/22 11:06:05;;;;;;;8.67;7.73;;;20.20;99.90;;;;;;5011804;28;20546;-63
2021/06/22 11:08:33;;;;;;;11.37;7.87;;;20.20;99.90;;;;;;5016838;28;20175;-64
2021/06/22 11:10:58;;;;;;;8.23;7.63;;;19.90;99.90;;;;;;5030965;28;20195;-64
2021/06/22 11:13:33;;;;;;;8.87;8.17;;;19.90;99.90;;;;;;5029887;28;20202;-66
2021/06/22 11:16:05;;;;;;;8.97;8.17;;;19.90;99.90;;;;;;5018798;28;20175;-64
2021/06/22 11:18:53;;;;;;;7.37;6.67;;;19.90;99.90;;;;;;5015955;28;20171;-64
2021/06/22 11:21:26;;;;;;;7.50;6.80;;;19.80;99.90;;;;;;5030550;28;20175;-64
2021/06/22 11:24:05;;;;;;;7.60;7.00;;;19.60;99.90;;;;;;5031835;28;20219;-65
2021/06/22 11:26:53;;;;;;;8.23;7.30;;;19.50;99.90;;;;;;5035489;28;20171;-64
2021/06/22 11:29:22;;;;;;;7.90;7.30;;;19.40;99.90;;;;;;5025066;28;20211;-65
2021/06/22 11:31:56;;;;;;;7.97;7.30;;;19.30;99.90;;;;;;5015407;28;20199;-64
2021/06/22 11:34:29;;;;;;;6.83;6.43;;;19.40;99.90;;;;;;5017116;28;20198;-64
2021/06/22 11:37:17;;;;;;;8.07;7.33;;;19.40;99.90;;;;;;5015747;28;20222;-65
2021/06/22 11:40:05;;;;;;;7.33;6.83;;;19.30;99.90;;;;;;5027026;28;20214;-65
2021/06/22 11:42:36;;;;;;;7.80;7.23;;;19.20;99.90;;;;;;5035288;28;20175;-65
2021/06/22 11:45:13;;;;;;;8.80;7.10;;;19.20;99.90;;;;;;5021018;28;20203;-64
2021/06/22 11:47:39;;;;;;;7.30;6.57;;;19.30;99.90;;;;;;5015442;28;20164;-64
2021/06/22 11:50:10;;;;;;;8.07;7.47;;;19.40;99.90;;;;;;5028753;28;20185;-64
2021/06/22 11:52:44;;;;;;;7.97;7.37;;;19.70;99.90;;;;;;5035127;28;20179;-64
2021/06/22 11:55:14;;;;;;;7.50;7.00;;;19.90;99.90;;;;;;5020767;28;20313;-64
2021/06/22 11:57:44;;;;;;;10.20;8.47;;;19.90;99.90;;;;;;5015255;28;20172;-65
2021/06/22 12:00:13;;;;;;;8.27;7.47;;;19.80;99.90;;;;;;5028477;28;20214;-66
2021/06/22 12:02:46;;;;;;;7.07;6.57;;;19.70;99.90;;;;;;5035131;28;20257;-67
2021/06/22 12:05:13;;;;;;;7.77;7.27;;;19.90;99.90;;;;;;5021756;28;20204;-67
2021/06/22 12:07:56;;;;;;;11.17;8.30;;;20.00;99.90;;;;;;5022198;28;20235;-64
2021/06/22 12:10:42;;;;;;;8.47;7.97;;;20.20;99.90;;;;;;5034502;28;20191;-64
2021/06/22 12:13:09;;;;;;;7.10;6.50;;;19.80;99.90;;;;;;5023893;28;20616;-67
2021/06/22 12:15:43;;;;;;;9.20;8.40;;;19.60;99.90;;;;;;5014954;28;20203;-64
2021/06/22 12:18:09;;;;;;;6.97;6.37;;;19.50;99.90;;;;;;5025111;28;20567;-64
2021/06/22 12:20:38;;;;;;;7.60;7.10;;;19.50;99.90;;;;;;5034336;28;20601;-65
2021/06/22 12:23:11;;;;;;;7.33;6.73;;;19.30;99.90;;;;;;5023940;28;20172;-65
2021/06/22 12:25:45;;;;;;;8.33;7.73;;;19.20;99.90;;;;;;5014977;28;20173;-66
2021/06/22 12:28:11;;;;;;;8.73;7.97;;;19.10;99.90;;;;;;5016525;28;20180;-66
2021/06/22 12:30:41;;;;;;;7.83;7.03;;;19.00;99.90;;;;;;5014552;28;20275;-66
2021/06/22 12:33:21;;;;;;;7.73;7.00;;;18.90;99.90;;;;;;5022421;28;20226;-66
2021/06/22 12:36:09;;;;;;;8.73;7.37;;;18.70;99.90;;;;;;5033709;28;20171;-66
2021/06/22 12:38:38;;;;;;;7.90;7.20;;;18.70;99.90;;;;;;5032760;28;20258;-65
2021/06/22 12:41:06;;;;;;;8.20;7.60;;;18.80;99.90;;;;;;5034193;28;20172;-66
2021/06/22 12:43:50;;;;;;;8.63;7.93;;;18.70;99.90;;;;;;5015625;28;20234;-65
2021/06/22 12:46:21;;;;;;;8.30;7.70;;;18.30;99.90;;;;;;5014734;28;20182;-66
2021/06/22 12:48:54;;;;;;;9.57;8.73;;;17.80;99.90;;;;;;5033469;28;20183;-66
2021/06/22 12:51:20;;;;;;;10.13;9.23;;;17.60;99.90;;;;;;5034008;28;20688;-64